createdAt,value
2017-03-06T00:00:31.754Z,10.54
2017-03-06T00:01:31.763Z,10.53
2017-03-06T00:02:31.774Z,10.49
2017-03-06T00:03:31.792Z,10.48
2017-03-06T00:04:31.813Z,10.49
2017-03-06T00:05:31.827Z,10.53
2017-03-06T00:06:31.878Z,10.53
2017-03-06T00:07:31.872Z,10.46
2017-03-06T00:08:31.868Z,10.49
2017-03-06T00:09:31.893Z,10.49
2017-03-06T00:10:31.901Z,10.57
2017-03-06T00:11:31.936Z,10.48
2017-03-06T00:12:31.931Z,10.54
2017-03-06T00:13:31.556Z,10.54
2017-03-06T00:14:31.987Z,10.49
2017-03-06T00:15:32.023Z,10.46
2017-03-06T00:16:32.001Z,10.51
2017-03-06T00:17:32.208Z,10.54
2017-03-06T00:18:32.042Z,10.54
2017-03-06T00:19:32.047Z,10.54
2017-03-06T00:20:32.079Z,10.49
2017-03-06T00:21:32.073Z,10.49
2017-03-06T00:22:32.119Z,10.53
2017-03-06T00:23:32.142Z,10.49
2017-03-06T00:24:31.736Z,10.53
2017-03-06T00:25:32.147Z,10.51
2017-03-06T00:26:32.158Z,10.49
2017-03-06T00:27:32.169Z,10.51
2017-03-06T00:28:32.178Z,10.51
2017-03-06T00:29:32.234Z,10.44
2017-03-06T00:30:32.226Z,10.48
2017-03-06T00:31:32.232Z,10.42
2017-03-06T00:32:32.256Z,10.42
2017-03-06T00:33:32.276Z,10.4
2017-03-06T00:34:32.302Z,10.42
2017-03-06T00:35:32.309Z,10.46
2017-03-06T00:36:32.337Z,10.42
2017-03-06T00:37:32.327Z,10.44
2017-03-06T00:38:31.948Z,10.4
2017-03-06T00:39:32.369Z,10.38
2017-03-06T00:40:32.365Z,10.41
2017-03-06T00:41:32.387Z,10.37
2017-03-06T00:42:32.416Z,10.42
2017-03-06T00:43:32.441Z,10.37
2017-03-06T00:44:32.524Z,10.31
2017-03-06T00:45:32.144Z,10.34
2017-03-06T00:46:32.140Z,10.26
2017-03-06T00:47:32.485Z,10.34
2017-03-06T00:48:32.100Z,10.34
2017-03-06T00:49:32.344Z,10.41
2017-03-06T00:50:32.567Z,10.31
2017-03-06T00:51:32.545Z,10.3
2017-03-06T00:52:32.566Z,10.33
2017-03-06T00:53:32.573Z,10.33
2017-03-06T00:54:32.608Z,10.35
2017-03-06T00:55:32.614Z,10.35
2017-03-06T00:56:32.627Z,10.3
2017-03-06T00:57:32.637Z,10.3
2017-03-06T00:58:32.665Z,10.3
2017-03-06T00:59:32.289Z,10.3
2017-03-06T01:00:32.716Z,10.3
2017-03-06T01:01:32.304Z,10.23
2017-03-06T01:02:32.730Z,10.28
2017-03-06T01:03:32.353Z,10.25
2017-03-06T01:04:32.755Z,10.23
2017-03-06T01:05:32.385Z,10.2
2017-03-06T01:06:32.410Z,10.28
2017-03-06T01:07:32.410Z,10.22
2017-03-06T01:08:32.813Z,10.23
2017-03-06T01:09:32.832Z,10.25
2017-03-06T01:10:32.847Z,10.15
2017-03-06T01:11:32.673Z,10.1
2017-03-06T01:12:32.500Z,10.17
2017-03-06T01:13:32.899Z,10.17
2017-03-06T01:14:32.508Z,10.15
2017-03-06T01:15:32.925Z,10.19
2017-03-06T01:16:32.545Z,10.1
2017-03-06T01:17:32.956Z,10.15
2017-03-06T01:18:32.987Z,10.15
2017-03-06T01:19:32.986Z,10.13
2017-03-06T01:20:32.613Z,10.13
2017-03-06T01:21:33.017Z,10.16
2017-03-06T01:22:33.052Z,10.2
2017-03-06T01:23:32.658Z,10.16
2017-03-06T01:24:33.077Z,10.15
2017-03-06T01:25:32.792Z,10.13
2017-03-06T01:26:33.228Z,10.13
2017-03-06T01:27:33.236Z,10.17
2017-03-06T01:28:33.238Z,10.15
2017-03-06T01:29:32.982Z,10.05
2017-03-06T01:30:33.216Z,10.1
2017-03-06T01:31:33.281Z,10.09
2017-03-06T01:32:32.897Z,10.1
2017-03-06T01:33:32.921Z,10.16
2017-03-06T01:34:33.383Z,10.1
2017-03-06T01:35:33.332Z,10.16
2017-03-06T01:36:33.333Z,10.05
2017-03-06T01:37:33.333Z,10.15
2017-03-06T01:38:32.978Z,10.05
2017-03-06T01:39:33.492Z,10.13
2017-03-06T01:40:33.027Z,10.05
2017-03-06T01:41:33.035Z,10.13
2017-03-06T01:42:33.436Z,10.13
2017-03-06T01:43:33.443Z,10.13
2017-03-06T01:44:33.465Z,10.1
2017-03-06T01:45:33.413Z,10.1
2017-03-06T01:46:33.429Z,10.17
2017-03-06T01:47:33.027Z,10.07
2017-03-06T01:48:33.127Z,10.13
2017-03-06T01:49:33.458Z,10.12
2017-03-06T01:50:33.472Z,10.1
2017-03-06T01:51:33.496Z,10.16
2017-03-06T01:52:33.495Z,10.05
2017-03-06T01:53:33.522Z,10.09
2017-03-06T01:54:33.536Z,10.1
2017-03-06T01:55:33.551Z,10.13
2017-03-06T01:56:33.561Z,10.1
2017-03-06T01:57:33.583Z,10.13
2017-03-06T01:58:33.590Z,10.12
2017-03-06T01:59:33.610Z,10.09
2017-03-06T02:00:33.340Z,10.1
2017-03-06T02:01:33.654Z,10.1
2017-03-06T02:02:33.669Z,10.1
2017-03-06T02:03:33.678Z,10.1
2017-03-06T02:04:33.687Z,10.05
2017-03-06T02:05:33.318Z,10.09
2017-03-06T02:06:33.319Z,10.09
2017-03-06T02:07:33.732Z,10.09
2017-03-06T02:08:33.763Z,10.16
2017-03-06T02:09:33.766Z,10.05
2017-03-06T02:10:33.381Z,10.16
2017-03-06T02:11:33.791Z,10.17
2017-03-06T02:12:33.424Z,10.09
2017-03-06T02:13:33.426Z,10.05
2017-03-06T02:14:33.855Z,10.05
2017-03-06T02:15:33.469Z,10.04
2017-03-06T02:16:33.487Z,10.04
2017-03-06T02:17:33.892Z,10.02
2017-03-06T02:18:33.504Z,10.02
2017-03-06T02:19:33.923Z,10.01
2017-03-06T02:20:33.928Z,9.98
2017-03-06T02:21:34.052Z,10.04
2017-03-06T02:22:33.330Z,10.09
2017-03-06T02:23:33.731Z,10.05
2017-03-06T02:24:34.277Z,10.1
2017-03-06T02:25:34.135Z,10.05
2017-03-06T02:26:34.141Z,9.99
2017-03-06T02:27:34.147Z,10.05
2017-03-06T02:28:33.759Z,10.01
2017-03-06T02:29:34.351Z,10.02
2017-03-06T02:30:34.165Z,9.95
2017-03-06T02:31:34.313Z,9.98
2017-03-06T02:32:34.329Z,9.92
2017-03-06T02:33:34.326Z,10.05
2017-03-06T02:34:34.299Z,10.13
2017-03-06T02:35:34.247Z,9.99
2017-03-06T02:36:34.253Z,9.98
2017-03-06T02:37:34.300Z,9.98
2017-03-06T02:38:34.300Z,10.07
2017-03-06T02:39:48.713Z,9.99
2017-03-06T02:40:33.955Z,9.98
2017-03-06T02:41:33.942Z,10.05
2017-03-06T02:42:34.358Z,9.99
2017-03-06T02:43:34.354Z,10.01
2017-03-06T02:44:34.433Z,10.02
2017-03-06T02:45:34.373Z,9.94
2017-03-06T02:46:34.403Z,9.97
2017-03-06T02:47:33.961Z,9.95
2017-03-06T02:48:34.377Z,10.04
2017-03-06T02:49:34.383Z,9.99
2017-03-06T02:50:34.391Z,10.01
2017-03-06T02:51:34.623Z,10.01
2017-03-06T02:52:34.425Z,10.09
2017-03-06T02:53:34.554Z,10.07
2017-03-06T02:54:34.563Z,10.02
2017-03-06T02:55:34.579Z,10.02
2017-03-06T02:56:35.528Z,10.02
2017-03-06T02:57:34.502Z,10.02
2017-03-06T02:58:34.523Z,10.01
2017-03-06T02:59:34.549Z,10.02
2017-03-06T03:00:34.545Z,9.98
2017-03-06T03:01:34.571Z,9.97
2017-03-06T03:02:34.582Z,9.99
2017-03-06T03:03:34.588Z,9.99
2017-03-06T03:04:34.210Z,9.99
2017-03-06T03:05:34.624Z,9.99
2017-03-06T03:06:34.641Z,9.99
2017-03-06T03:07:34.661Z,9.99
2017-03-06T03:08:34.869Z,10.01
2017-03-06T03:09:34.694Z,9.95
2017-03-06T03:10:34.302Z,9.98
2017-03-06T03:11:34.728Z,9.95
2017-03-06T03:12:34.343Z,9.94
2017-03-06T03:13:34.361Z,9.99
2017-03-06T03:14:34.761Z,9.97
2017-03-06T03:15:34.774Z,9.94
2017-03-06T03:16:34.792Z,9.95
2017-03-06T03:17:34.813Z,10.04
2017-03-06T03:18:34.839Z,9.97
2017-03-06T03:19:34.855Z,9.95
2017-03-06T03:20:34.859Z,9.97
2017-03-06T03:21:34.863Z,10.01
2017-03-06T03:22:34.885Z,10.04
2017-03-06T03:23:34.913Z,9.94
2017-03-06T03:24:34.911Z,9.98
2017-03-06T03:25:34.929Z,10.01
2017-03-06T03:26:34.946Z,9.97
2017-03-06T03:27:35.805Z,9.98
2017-03-06T03:28:34.984Z,9.94
2017-03-06T03:29:34.994Z,9.92
2017-03-06T03:30:35.002Z,9.97
2017-03-06T03:31:35.019Z,9.87
2017-03-06T03:32:35.043Z,9.89
2017-03-06T03:33:35.054Z,9.95
2017-03-06T03:34:35.066Z,9.86
2017-03-06T03:35:35.082Z,9.97
2017-03-06T03:36:35.107Z,9.98
2017-03-06T03:37:35.107Z,9.97
2017-03-06T03:38:35.124Z,9.98
2017-03-06T03:39:35.148Z,10.01
2017-03-06T03:40:35.158Z,9.97
2017-03-06T03:41:35.188Z,9.98
2017-03-06T03:42:35.211Z,9.98
2017-03-06T03:43:35.203Z,9.92
2017-03-06T03:44:35.221Z,9.92
2017-03-06T03:45:35.230Z,9.98
2017-03-06T03:46:35.250Z,9.95
2017-03-06T03:47:35.264Z,9.98
2017-03-06T03:48:35.285Z,9.95
2017-03-06T03:49:35.294Z,9.92
2017-03-06T03:50:35.316Z,9.95
2017-03-06T03:51:35.335Z,9.94
2017-03-06T03:52:35.340Z,9.94
2017-03-06T03:53:35.351Z,9.94
2017-03-06T03:54:35.371Z,9.97
2017-03-06T03:55:35.382Z,9.92
2017-03-06T03:56:35.400Z,9.92
2017-03-06T03:57:35.436Z,9.94
2017-03-06T03:58:35.433Z,9.97
2017-03-06T03:59:35.448Z,9.99
2017-03-06T04:00:35.468Z,9.97
2017-03-06T04:01:35.474Z,9.97
2017-03-06T04:02:35.504Z,9.94
2017-03-06T04:03:35.513Z,9.99
2017-03-06T04:04:35.525Z,9.95
2017-03-06T04:05:35.554Z,9.94
2017-03-06T04:06:35.164Z,9.91
2017-03-06T04:07:35.582Z,9.97
2017-03-06T04:08:35.195Z,9.94
2017-03-06T04:09:35.203Z,9.97
2017-03-06T04:10:35.637Z,9.94
2017-03-06T04:11:35.634Z,9.92
2017-03-06T04:12:35.251Z,9.91
2017-03-06T04:13:35.662Z,9.94
2017-03-06T04:14:35.675Z,9.91
2017-03-06T04:15:35.697Z,9.89
2017-03-06T04:16:35.715Z,9.91
2017-03-06T04:17:35.720Z,9.92
2017-03-06T04:18:35.738Z,9.97
2017-03-06T04:19:35.760Z,9.92
2017-03-06T04:20:35.769Z,9.94
2017-03-06T04:21:35.783Z,9.94
2017-03-06T04:22:35.832Z,9.98
2017-03-06T04:23:35.811Z,9.89
2017-03-06T04:24:35.833Z,9.89
2017-03-06T04:25:35.852Z,9.91
2017-03-06T04:26:35.857Z,9.95
2017-03-06T04:27:35.878Z,9.86
2017-03-06T04:28:35.898Z,9.87
2017-03-06T04:29:35.913Z,9.92
2017-03-06T04:30:35.930Z,9.94
2017-03-06T04:31:35.938Z,9.92
2017-03-06T04:32:35.954Z,9.87
2017-03-06T04:33:35.970Z,9.91
2017-03-06T04:34:35.592Z,9.95
2017-03-06T04:35:36.010Z,9.89
2017-03-06T04:36:36.012Z,9.94
2017-03-06T04:37:36.024Z,9.92
2017-03-06T04:38:36.040Z,9.87
2017-03-06T04:39:36.077Z,9.89
2017-03-06T04:40:36.077Z,9.89
2017-03-06T04:41:36.102Z,9.92
2017-03-06T04:42:36.117Z,9.91
2017-03-06T04:43:36.114Z,9.92
2017-03-06T04:44:36.139Z,9.91
2017-03-06T04:45:36.152Z,9.92
2017-03-06T04:46:36.179Z,9.89
2017-03-06T04:47:36.177Z,9.83
2017-03-06T04:48:36.204Z,9.92
2017-03-06T04:49:36.210Z,9.94
2017-03-06T04:50:36.234Z,9.91
2017-03-06T04:51:36.283Z,9.97
2017-03-06T04:52:36.254Z,9.91
2017-03-06T04:53:36.278Z,9.83
2017-03-06T04:54:36.284Z,9.94
2017-03-06T04:55:36.301Z,9.92
2017-03-06T04:56:36.317Z,9.91
2017-03-06T04:57:36.344Z,9.91
2017-03-06T04:58:36.363Z,9.89
2017-03-06T04:59:36.372Z,9.97
2017-03-06T05:00:36.411Z,9.91
2017-03-06T05:01:36.393Z,9.86
2017-03-06T05:02:36.427Z,9.89
2017-03-06T05:03:36.429Z,9.86
2017-03-06T05:04:36.445Z,9.91
2017-03-06T05:05:36.073Z,9.94
2017-03-06T05:06:36.468Z,9.91
2017-03-06T05:07:36.491Z,9.92
2017-03-06T05:08:36.496Z,9.87
2017-03-06T05:09:36.517Z,9.91
2017-03-06T05:10:36.521Z,9.91
2017-03-06T05:11:36.545Z,9.91
2017-03-06T05:12:36.586Z,9.87
2017-03-06T05:13:36.587Z,9.91
2017-03-06T05:14:36.608Z,9.89
2017-03-06T05:15:36.615Z,9.92
2017-03-06T05:16:36.223Z,9.89
2017-03-06T05:17:36.647Z,9.84
2017-03-06T05:18:36.648Z,9.82
2017-03-06T05:19:36.675Z,9.84
2017-03-06T05:20:36.679Z,9.89
2017-03-06T05:21:36.701Z,9.89
2017-03-06T05:22:43.083Z,9.91
2017-03-06T05:23:36.885Z,9.87
2017-03-06T05:24:37.026Z,9.91
2017-03-06T05:25:36.883Z,9.91
2017-03-06T05:26:36.372Z,9.95
2017-03-06T05:27:36.883Z,9.95
2017-03-06T05:28:36.811Z,9.82
2017-03-06T05:29:36.817Z,9.83
2017-03-06T05:30:36.855Z,9.86
2017-03-06T05:31:36.863Z,9.8
2017-03-06T05:32:36.873Z,9.92
2017-03-06T05:33:36.882Z,9.79
2017-03-06T05:34:36.898Z,9.86
2017-03-06T05:35:36.906Z,9.89
2017-03-06T05:36:36.932Z,9.82
2017-03-06T05:37:36.949Z,9.83
2017-03-06T05:38:36.959Z,9.83
2017-03-06T05:39:36.971Z,9.84
2017-03-06T05:40:36.999Z,9.89
2017-03-06T05:41:37.004Z,9.82
2017-03-06T05:42:37.023Z,9.83
2017-03-06T05:43:37.035Z,9.82
2017-03-06T05:44:37.064Z,9.79
2017-03-06T05:45:37.068Z,9.82
2017-03-06T05:46:37.096Z,9.8
2017-03-06T05:47:37.106Z,9.8
2017-03-06T05:48:37.131Z,9.79
2017-03-06T05:49:37.120Z,9.84
2017-03-06T05:50:37.152Z,9.83
2017-03-06T05:51:37.201Z,9.8
2017-03-06T05:52:37.180Z,9.87
2017-03-06T05:53:37.179Z,9.82
2017-03-06T05:54:37.215Z,9.8
2017-03-06T05:55:37.210Z,9.84
2017-03-06T05:56:37.242Z,9.82
2017-03-06T05:57:37.259Z,9.82
2017-03-06T05:58:37.254Z,9.82
2017-03-06T05:59:37.274Z,9.83
2017-03-06T06:00:37.289Z,9.84
2017-03-06T06:01:37.298Z,9.77
2017-03-06T06:02:37.316Z,9.77
2017-03-06T06:03:37.332Z,9.8
2017-03-06T06:04:37.351Z,9.86
2017-03-06T06:05:37.362Z,9.79
2017-03-06T06:06:37.380Z,9.86
2017-03-06T06:07:37.398Z,9.8
2017-03-06T06:08:37.408Z,9.73
2017-03-06T06:09:37.420Z,9.82
2017-03-06T06:10:37.445Z,9.8
2017-03-06T06:11:37.455Z,9.76
2017-03-06T06:12:37.474Z,9.79
2017-03-06T06:13:37.083Z,9.73
2017-03-06T06:14:37.497Z,9.8
2017-03-06T06:15:37.513Z,9.83
2017-03-06T06:16:37.554Z,9.74
2017-03-06T06:17:37.580Z,9.82
2017-03-06T06:18:37.566Z,9.8
2017-03-06T06:19:37.571Z,9.74
2017-03-06T06:20:37.591Z,9.8
2017-03-06T06:21:37.603Z,9.77
2017-03-06T06:22:37.632Z,9.8
2017-03-06T06:23:37.642Z,9.79
2017-03-06T06:24:37.673Z,9.76
2017-03-06T06:25:37.668Z,9.79
2017-03-06T06:26:37.684Z,9.83
2017-03-06T06:27:37.295Z,9.79
2017-03-06T06:28:37.710Z,9.73
2017-03-06T06:29:37.744Z,9.82
2017-03-06T06:30:37.754Z,9.82
2017-03-06T06:31:37.754Z,9.74
2017-03-06T06:32:37.775Z,9.79
2017-03-06T06:33:37.788Z,9.76
2017-03-06T06:34:37.813Z,9.8
2017-03-06T06:35:37.822Z,9.79
2017-03-06T06:36:37.458Z,9.79
2017-03-06T06:37:37.863Z,9.76
2017-03-06T06:38:37.875Z,9.76
2017-03-06T06:39:37.883Z,9.76
2017-03-06T06:40:37.903Z,9.76
2017-03-06T06:41:37.903Z,9.73
2017-03-06T06:42:37.938Z,9.77
2017-03-06T06:43:37.936Z,9.76
2017-03-06T06:44:37.952Z,9.77
2017-03-06T06:45:37.971Z,9.76
2017-03-06T06:46:37.992Z,9.73
2017-03-06T06:47:38.020Z,9.74
2017-03-06T06:48:38.035Z,9.73
2017-03-06T06:49:38.029Z,9.73
2017-03-06T06:50:38.056Z,9.69
2017-03-06T06:51:38.054Z,9.69
2017-03-06T06:52:38.074Z,9.72
2017-03-06T06:53:38.087Z,9.65
2017-03-06T06:54:38.273Z,9.86
2017-03-06T06:55:38.127Z,9.68
2017-03-06T06:56:38.238Z,9.66
2017-03-06T06:57:38.248Z,9.72
2017-03-06T06:58:38.256Z,9.69
2017-03-06T06:59:38.289Z,9.69
2017-03-06T07:00:38.192Z,9.76
2017-03-06T07:01:38.221Z,9.74
2017-03-06T07:02:38.226Z,9.72
2017-03-06T07:03:38.239Z,9.82
2017-03-06T07:04:38.255Z,9.79
2017-03-06T07:05:38.271Z,9.74
2017-03-06T07:06:38.292Z,9.84
2017-03-06T07:07:38.307Z,9.84
2017-03-06T07:08:38.318Z,9.82
2017-03-06T07:09:38.334Z,9.86
2017-03-06T07:10:38.371Z,9.84
2017-03-06T07:11:38.355Z,9.82
2017-03-06T07:12:38.402Z,9.79
2017-03-06T07:13:38.003Z,9.82
2017-03-06T07:14:38.034Z,9.8
2017-03-06T07:15:38.049Z,9.83
2017-03-06T07:16:38.454Z,9.95
2017-03-06T07:17:38.455Z,9.89
2017-03-06T07:18:38.463Z,9.84
2017-03-06T07:19:38.097Z,9.82
2017-03-06T07:20:38.496Z,9.77
2017-03-06T07:21:38.551Z,9.77
2017-03-06T07:22:38.633Z,9.84
2017-03-06T07:23:38.145Z,9.82
2017-03-06T07:24:38.674Z,9.82
2017-03-06T07:25:38.682Z,9.86
2017-03-06T07:26:38.682Z,9.89
2017-03-06T07:27:38.209Z,9.83
2017-03-06T07:28:38.699Z,9.8
2017-03-06T07:29:38.708Z,9.86
2017-03-06T07:30:38.716Z,9.83
2017-03-06T07:31:38.713Z,9.82
2017-03-06T07:32:38.724Z,9.82
2017-03-06T07:33:38.732Z,9.79
2017-03-06T07:34:38.801Z,9.83
2017-03-06T07:35:38.802Z,9.79
2017-03-06T07:36:38.368Z,9.82
2017-03-06T07:37:38.820Z,9.76
2017-03-06T07:38:38.828Z,9.74
2017-03-06T07:39:38.834Z,9.72
2017-03-06T07:40:38.843Z,9.82
2017-03-06T07:41:38.024Z,9.82
2017-03-06T07:42:38.854Z,9.8
2017-03-06T07:43:38.920Z,9.76
2017-03-06T07:44:38.949Z,9.74
2017-03-06T07:45:38.927Z,9.74
2017-03-06T07:46:39.008Z,9.79
2017-03-06T07:47:39.016Z,9.73
2017-03-06T07:48:39.010Z,9.76
2017-03-06T07:49:39.028Z,9.76
2017-03-06T07:50:39.041Z,9.79
2017-03-06T07:51:39.054Z,9.77
2017-03-06T07:52:39.231Z,9.73
2017-03-06T07:53:39.240Z,9.77
2017-03-06T07:54:38.621Z,9.69
2017-03-06T07:55:39.155Z,9.73
2017-03-06T07:56:39.163Z,9.74
2017-03-06T07:57:39.178Z,9.73
2017-03-06T07:58:39.180Z,9.74
2017-03-06T07:59:39.189Z,9.79
2017-03-06T08:00:39.198Z,9.74
2017-03-06T08:01:39.330Z,9.74
2017-03-06T08:02:38.826Z,9.74
2017-03-06T08:03:39.347Z,9.77
2017-03-06T08:04:39.356Z,9.73
2017-03-06T08:05:39.365Z,9.76
2017-03-06T08:06:39.370Z,9.69
2017-03-06T08:07:38.901Z,9.79
2017-03-06T08:08:39.296Z,9.74
2017-03-06T08:09:39.347Z,9.8
2017-03-06T08:10:39.361Z,9.74
2017-03-06T08:11:38.953Z,9.76
2017-03-06T08:12:39.386Z,9.76
2017-03-06T08:13:39.393Z,9.77
2017-03-06T08:14:39.600Z,9.76
2017-03-06T08:15:39.407Z,9.79
2017-03-06T08:16:39.454Z,9.8
2017-03-06T08:17:39.360Z,9.83
2017-03-06T08:18:39.388Z,9.82
2017-03-06T08:19:39.400Z,9.76
2017-03-06T08:20:39.454Z,9.8
2017-03-06T08:21:39.414Z,9.77
2017-03-06T08:22:39.160Z,9.84
2017-03-06T08:23:39.277Z,9.87
2017-03-06T08:24:39.483Z,9.79
2017-03-06T08:25:39.492Z,9.82
2017-03-06T08:26:39.577Z,9.79
2017-03-06T08:27:39.587Z,9.77
2017-03-06T08:28:39.152Z,9.87
2017-03-06T08:29:39.653Z,9.84
2017-03-06T08:30:39.651Z,9.95
2017-03-06T08:31:39.171Z,9.97
2017-03-06T08:32:39.709Z,9.97
2017-03-06T08:33:39.219Z,9.87
2017-03-06T08:34:39.237Z,9.89
2017-03-06T08:35:39.745Z,9.91
2017-03-06T08:36:39.248Z,9.86
2017-03-06T08:37:39.765Z,9.92
2017-03-06T08:38:39.287Z,9.87
2017-03-06T08:39:39.311Z,9.95
2017-03-06T08:40:39.325Z,9.84
2017-03-06T08:41:39.789Z,9.97
2017-03-06T08:42:39.796Z,10.01
2017-03-06T08:43:39.806Z,10.02
2017-03-06T08:44:39.854Z,9.97
2017-03-06T08:45:39.393Z,10.05
2017-03-06T08:46:39.938Z,10.16
2017-03-06T08:47:39.531Z,10.02
2017-03-06T08:48:39.937Z,10.05
2017-03-06T08:49:39.578Z,10.1
2017-03-06T08:50:39.955Z,10.22
2017-03-06T08:51:39.964Z,10.15
2017-03-06T08:52:40.134Z,10.13
2017-03-06T08:53:40.133Z,10.09
2017-03-06T08:54:40.142Z,10.12
2017-03-06T08:55:40.153Z,10.23
2017-03-06T08:56:40.167Z,10.19
2017-03-06T08:57:40.075Z,10.26
2017-03-06T08:58:39.814Z,10.25
2017-03-06T08:59:40.082Z,10.25
2017-03-06T09:00:40.193Z,10.28
2017-03-06T09:01:39.724Z,10.25
2017-03-06T09:02:40.244Z,10.31
2017-03-06T09:03:40.166Z,10.25
2017-03-06T09:04:40.258Z,10.3
2017-03-06T09:05:40.269Z,10.34
2017-03-06T09:06:40.275Z,10.4
2017-03-06T09:07:40.204Z,10.41
2017-03-06T09:08:39.890Z,10.4
2017-03-06T09:09:40.291Z,10.35
2017-03-06T09:10:40.266Z,10.4
2017-03-06T09:11:39.857Z,10.38
2017-03-06T09:12:39.880Z,10.33
2017-03-06T09:13:40.283Z,10.41
2017-03-06T09:14:40.302Z,10.41
2017-03-06T09:15:40.300Z,10.44
2017-03-06T09:16:40.320Z,10.4
2017-03-06T09:17:40.306Z,10.35
2017-03-06T09:18:40.316Z,10.51
2017-03-06T09:19:40.325Z,10.49
2017-03-06T09:20:40.330Z,10.56
2017-03-06T09:21:40.362Z,10.57
2017-03-06T09:22:39.709Z,10.56
2017-03-06T09:23:40.417Z,10.48
2017-03-06T09:24:40.393Z,10.6
2017-03-06T09:25:40.406Z,10.6
2017-03-06T09:26:40.413Z,10.67
2017-03-06T09:27:40.140Z,10.67
2017-03-06T09:28:40.538Z,10.64
2017-03-06T09:29:40.477Z,10.67
2017-03-06T09:30:40.493Z,10.69
2017-03-06T09:31:40.580Z,10.76
2017-03-06T09:32:40.621Z,10.74
2017-03-06T09:33:40.621Z,10.79
2017-03-06T09:34:40.741Z,10.79
2017-03-06T09:35:40.177Z,10.78
2017-03-06T09:36:40.680Z,10.74
2017-03-06T09:37:40.686Z,10.76
2017-03-06T09:38:40.741Z,10.78
2017-03-06T09:39:40.746Z,10.79
2017-03-06T09:40:40.736Z,10.81
2017-03-06T09:41:40.725Z,10.82
2017-03-06T09:42:40.732Z,10.81
2017-03-06T09:43:40.742Z,10.94
2017-03-06T09:44:40.828Z,10.92
2017-03-06T09:45:40.725Z,10.92
2017-03-06T09:46:40.754Z,10.96
2017-03-06T09:47:40.741Z,10.99
2017-03-06T09:48:40.806Z,11.04
2017-03-06T09:49:40.802Z,11.02
2017-03-06T09:50:40.811Z,11.12
2017-03-06T09:51:40.837Z,11.1
2017-03-06T09:52:40.851Z,11.07
2017-03-06T09:53:40.852Z,11.18
2017-03-06T09:54:40.876Z,11.18
2017-03-06T09:55:40.871Z,11.15
2017-03-06T09:56:40.535Z,11.15
2017-03-06T09:57:40.994Z,11.19
2017-03-06T09:58:40.952Z,11.12
2017-03-06T09:59:40.939Z,11.19
2017-03-06T10:00:40.977Z,11.22
2017-03-06T10:01:40.965Z,11.22
2017-03-06T10:02:41.003Z,11.26
2017-03-06T10:03:40.999Z,11.25
2017-03-06T10:04:41.045Z,11.29
2017-03-06T10:05:41.035Z,11.25
2017-03-06T10:06:41.072Z,11.25
2017-03-06T10:07:41.064Z,11.36
2017-03-06T10:08:41.110Z,11.29
2017-03-06T10:09:41.108Z,11.25
2017-03-06T10:10:41.132Z,11.3
2017-03-06T10:11:41.128Z,11.32
2017-03-06T10:12:41.162Z,11.37
2017-03-06T10:13:41.171Z,11.36
2017-03-06T10:14:41.198Z,11.41
2017-03-06T10:15:41.196Z,11.41
2017-03-06T10:16:40.830Z,11.35
2017-03-06T10:17:41.232Z,11.43
2017-03-06T10:18:40.849Z,11.35
2017-03-06T10:19:41.258Z,11.43
2017-03-06T10:20:41.300Z,11.45
2017-03-06T10:21:41.299Z,11.4
2017-03-06T10:22:41.330Z,11.4
2017-03-06T10:23:41.324Z,11.43
2017-03-06T10:24:41.355Z,11.45
2017-03-06T10:25:41.351Z,11.48
2017-03-06T10:26:41.419Z,11.48
2017-03-06T10:27:41.395Z,11.5
2017-03-06T10:28:41.434Z,11.44
2017-03-06T10:29:41.449Z,11.48
2017-03-06T10:30:41.470Z,11.5
2017-03-06T10:31:41.473Z,11.52
2017-03-06T10:32:41.493Z,11.52
2017-03-06T10:33:41.484Z,11.68
2017-03-06T10:34:41.584Z,11.57
2017-03-06T10:35:41.535Z,11.63
2017-03-06T10:36:41.568Z,11.62
2017-03-06T10:37:41.559Z,11.63
2017-03-06T10:38:41.605Z,11.65
2017-03-06T10:39:41.589Z,11.65
2017-03-06T10:40:41.619Z,11.66
2017-03-06T10:41:41.624Z,11.77
2017-03-06T10:42:41.657Z,11.77
2017-03-06T10:43:41.671Z,11.81
2017-03-06T10:44:41.676Z,11.75
2017-03-06T10:45:41.691Z,11.78
2017-03-06T10:46:41.702Z,11.83
2017-03-06T10:47:41.728Z,11.88
2017-03-06T10:48:41.750Z,11.87
2017-03-06T10:49:41.750Z,12.02
2017-03-06T10:50:41.792Z,11.9
2017-03-06T10:51:41.805Z,11.9
2017-03-06T10:52:41.803Z,11.95
2017-03-06T10:53:41.814Z,11.95
2017-03-06T10:54:41.855Z,12
2017-03-06T10:55:41.853Z,11.95
2017-03-06T10:56:41.893Z,12.04
2017-03-06T10:57:41.899Z,12.1
2017-03-06T10:58:41.901Z,11.94
2017-03-06T10:59:41.926Z,12.06
2017-03-06T11:00:41.951Z,12.07
2017-03-06T11:01:41.942Z,12.07
2017-03-06T11:02:41.995Z,12.12
2017-03-06T11:03:42.013Z,12.13
2017-03-06T11:04:42.031Z,12.22
2017-03-06T11:05:42.016Z,12.25
2017-03-06T11:06:42.062Z,12.24
2017-03-06T11:07:42.058Z,12.28
2017-03-06T11:08:42.089Z,12.35
2017-03-06T11:09:42.076Z,12.36
2017-03-06T11:10:42.124Z,12.39
2017-03-06T11:11:41.730Z,12.36
2017-03-06T11:12:41.760Z,12.37
2017-03-06T11:13:42.143Z,12.42
2017-03-06T11:14:41.876Z,12.39
2017-03-06T11:15:42.177Z,12.47
2017-03-06T11:16:41.814Z,12.5
2017-03-06T11:17:41.925Z,12.5
2017-03-06T11:18:42.235Z,12.55
2017-03-06T11:19:42.049Z,12.55
2017-03-06T11:20:42.270Z,12.62
2017-03-06T11:21:42.280Z,12.64
2017-03-06T11:22:42.299Z,12.64
2017-03-06T11:23:42.327Z,12.67
2017-03-06T11:24:42.348Z,12.65
2017-03-06T11:25:42.367Z,12.68
2017-03-06T11:26:42.366Z,12.72
2017-03-06T11:27:42.380Z,12.7
2017-03-06T11:28:42.404Z,12.76
2017-03-06T11:29:42.416Z,12.75
2017-03-06T11:30:42.456Z,12.8
2017-03-06T11:31:42.449Z,12.82
2017-03-06T11:32:42.466Z,12.82
2017-03-06T11:33:42.497Z,12.87
2017-03-06T11:34:42.511Z,12.95
2017-03-06T11:35:42.523Z,12.97
2017-03-06T11:36:42.535Z,12.93
2017-03-06T11:37:42.566Z,13.05
2017-03-06T11:38:42.569Z,13
2017-03-06T11:39:42.603Z,13.01
2017-03-06T11:40:42.226Z,13.05
2017-03-06T11:41:42.626Z,13.01
2017-03-06T11:42:42.644Z,13.08
2017-03-06T11:43:42.668Z,13.05
2017-03-06T11:44:42.686Z,13.04
2017-03-06T11:45:42.718Z,13.09
2017-03-06T11:46:42.720Z,13.15
2017-03-06T11:47:42.733Z,13.2
2017-03-06T11:48:42.743Z,13.13
2017-03-06T11:49:42.792Z,13.19
2017-03-06T11:50:42.784Z,13.2
2017-03-06T11:51:42.795Z,13.18
2017-03-06T11:52:42.424Z,13.13
2017-03-06T11:53:42.445Z,13.27
2017-03-06T11:54:42.465Z,13.19
2017-03-06T11:55:42.865Z,13.15
2017-03-06T11:56:42.885Z,13.22
2017-03-06T11:57:42.910Z,13.22
2017-03-06T11:58:42.919Z,13.2
2017-03-06T11:59:42.935Z,13.12
2017-03-06T12:00:42.960Z,13.25
2017-03-06T12:01:42.972Z,13.22
2017-03-06T12:02:42.992Z,13.19
2017-03-06T12:03:43.007Z,13.19
2017-03-06T12:04:43.029Z,13.16
2017-03-06T12:05:43.037Z,13.13
2017-03-06T12:06:43.062Z,13.19
2017-03-06T12:07:43.086Z,13.16
2017-03-06T12:08:43.100Z,13.11
2017-03-06T12:09:43.107Z,13.15
2017-03-06T12:10:43.128Z,13.2
2017-03-06T12:11:43.155Z,13.13
2017-03-06T12:12:43.176Z,13.12
2017-03-06T12:13:43.181Z,13.18
2017-03-06T12:14:43.204Z,13.19
2017-03-06T12:15:42.838Z,13.13
2017-03-06T12:16:43.233Z,13.15
2017-03-06T12:17:43.256Z,13.16
2017-03-06T12:18:43.272Z,13.15
2017-03-06T12:19:43.292Z,13.2
2017-03-06T12:20:43.317Z,13.09
2017-03-06T12:21:43.357Z,13.16
2017-03-06T12:22:43.359Z,13.19
2017-03-06T12:23:43.357Z,13.18
2017-03-06T12:24:43.377Z,13.18
2017-03-06T12:25:43.399Z,13.16
2017-03-06T12:26:43.417Z,13.19
2017-03-06T12:27:43.182Z,13.19
2017-03-06T12:28:43.545Z,13.22
2017-03-06T12:29:43.474Z,13.3
2017-03-06T12:30:43.499Z,13.16
2017-03-06T12:31:43.504Z,13.3
2017-03-06T12:32:43.526Z,13.31
2017-03-06T12:33:43.530Z,13.37
2017-03-06T12:34:43.551Z,13.44
2017-03-06T12:35:43.577Z,13.38
2017-03-06T12:36:43.193Z,13.37
2017-03-06T12:37:43.601Z,13.59
2017-03-06T12:38:43.620Z,13.49
2017-03-06T12:39:43.647Z,13.56
2017-03-06T12:40:43.669Z,13.57
2017-03-06T12:41:43.699Z,13.59
2017-03-06T12:42:43.698Z,13.67
2017-03-06T12:43:43.722Z,13.7
2017-03-06T12:44:43.751Z,13.67
2017-03-06T12:45:43.749Z,13.72
2017-03-06T12:46:43.879Z,13.63
2017-03-06T12:47:43.819Z,13.77
2017-03-06T12:48:43.890Z,13.72
2017-03-06T12:49:43.911Z,13.77
2017-03-06T12:50:43.550Z,13.7
2017-03-06T12:51:43.967Z,13.67
2017-03-06T12:52:43.954Z,13.68
2017-03-06T12:53:43.994Z,13.71
2017-03-06T12:54:43.910Z,13.67
2017-03-06T12:55:43.926Z,13.7
2017-03-06T12:56:43.969Z,13.63
2017-03-06T12:57:43.969Z,13.62
2017-03-06T12:58:44.056Z,13.57
2017-03-06T12:59:44.001Z,13.62
2017-03-06T13:00:44.018Z,13.65
2017-03-06T13:01:44.032Z,13.62
2017-03-06T13:02:44.048Z,13.62
2017-03-06T13:03:44.083Z,13.57
2017-03-06T13:04:44.085Z,13.54
2017-03-06T13:05:44.127Z,13.53
2017-03-06T13:06:44.151Z,13.47